createdAt,value
2018-09-26T00:00:47.703Z,7.68
2018-09-26T00:03:22.970Z,7.69
2018-09-26T00:05:51.145Z,7.63
2018-09-26T00:08:19.299Z,7.64
2018-09-26T00:10:47.801Z,7.66
2018-09-26T00:13:16.173Z,7.56
2018-09-26T00:15:44.373Z,7.51
2018-09-26T00:18:12.953Z,7.49
2018-09-26T00:20:41.129Z,7.53
2018-09-26T00:23:09.367Z,7.51
2018-09-26T00:25:37.526Z,7.45
2018-09-26T00:28:05.755Z,7.45
2018-09-26T00:30:34.376Z,7.47
2018-09-26T00:33:02.609Z,7.35
2018-09-26T00:35:30.793Z,7.37
2018-09-26T00:37:59.082Z,7.26
2018-09-26T00:40:27.313Z,7.18
2018-09-26T00:42:55.593Z,7.17
2018-09-26T00:45:23.935Z,7.16
2018-09-26T00:47:52.187Z,7.21
2018-09-26T00:50:20.357Z,7.20
2018-09-26T00:52:48.593Z,7.14
2018-09-26T00:55:16.753Z,7.10
2018-09-26T00:57:45.009Z,7.13
2018-09-26T01:00:13.225Z,7.19
2018-09-26T01:02:41.463Z,7.09
2018-09-26T01:05:09.833Z,7.08
2018-09-26T01:07:44.625Z,7.05
2018-09-26T01:10:13.593Z,7.03
2018-09-26T01:12:41.773Z,7.05
2018-09-26T01:15:09.910Z,7.15
2018-09-26T01:17:38.116Z,7.04
2018-09-26T01:20:06.797Z,6.99
2018-09-26T01:22:34.941Z,6.83
2018-09-26T01:25:03.118Z,6.94
2018-09-26T01:27:33.840Z,6.83
2018-09-26T01:30:03.167Z,6.87
2018-09-26T01:32:31.373Z,6.79
2018-09-26T01:34:59.532Z,6.79
2018-09-26T01:37:27.700Z,6.85
2018-09-26T01:39:57.103Z,6.72
2018-09-26T01:42:25.293Z,6.83
2018-09-26T01:44:53.486Z,6.71
2018-09-26T01:47:21.696Z,6.82
2018-09-26T01:49:49.897Z,6.69
2018-09-26T01:52:18.081Z,6.77
2018-09-26T01:54:46.454Z,6.67
2018-09-26T01:57:14.668Z,6.51
2018-09-26T01:59:42.877Z,6.75
2018-09-26T02:02:11.113Z,6.72
2018-09-26T02:04:39.387Z,6.85
2018-09-26T02:07:07.706Z,6.86
2018-09-26T02:09:35.902Z,6.78
2018-09-26T02:12:04.164Z,6.81
2018-09-26T02:14:32.391Z,6.77
2018-09-26T02:17:00.588Z,6.80
2018-09-26T02:19:28.845Z,6.77
2018-09-26T02:21:57.132Z,6.76
2018-09-26T02:24:25.368Z,6.81
2018-09-26T02:26:53.613Z,6.83
2018-09-26T02:29:21.817Z,6.70
2018-09-26T02:31:50.119Z,6.69
2018-09-26T02:34:18.362Z,6.81
2018-09-26T02:36:46.493Z,6.78
2018-09-26T02:39:14.694Z,6.72
2018-09-26T02:41:43.444Z,6.74
2018-09-26T02:44:11.626Z,6.61
2018-09-26T02:46:39.825Z,6.61
2018-09-26T02:49:08.011Z,6.58
2018-09-26T02:51:38.446Z,6.58
2018-09-26T02:54:07.391Z,6.62
2018-09-26T02:56:35.781Z,6.69
2018-09-26T02:59:04.041Z,6.69
2018-09-26T03:01:32.798Z,6.59
2018-09-26T03:04:01.664Z,6.58
2018-09-26T03:06:30.448Z,6.79
2018-09-26T03:08:58.616Z,6.71
2018-09-26T03:11:26.757Z,6.59
2018-09-26T03:13:54.943Z,6.57
2018-09-26T03:16:23.156Z,6.55
2018-09-26T03:18:51.990Z,6.61
2018-09-26T03:21:20.150Z,6.66
2018-09-26T03:23:48.386Z,6.60
2018-09-26T03:26:16.564Z,6.60
2018-09-26T03:28:44.923Z,6.58
2018-09-26T03:31:13.123Z,6.64
2018-09-26T03:33:41.393Z,6.70
2018-09-26T03:36:09.570Z,6.75
2018-09-26T03:41:12.195Z,6.71
2018-09-26T03:43:40.321Z,6.69
2018-09-26T03:46:08.767Z,6.70
2018-09-26T03:48:36.940Z,6.73
2018-09-26T03:51:05.103Z,6.80
2018-09-26T03:53:33.282Z,6.74
2018-09-26T03:56:01.455Z,6.79
2018-09-26T03:58:29.685Z,6.69
2018-09-26T04:00:57.866Z,6.76
2018-09-26T04:03:26.258Z,6.53
2018-09-26T04:05:55.067Z,6.70
2018-09-26T04:08:23.501Z,6.49
2018-09-26T04:10:51.665Z,6.56
2018-09-26T04:13:24.157Z,6.51
2018-09-26T04:15:55.853Z,6.45
2018-09-26T04:18:25.361Z,6.48
2018-09-26T04:20:54.153Z,6.37
2018-09-26T04:23:22.392Z,6.46
2018-09-26T04:25:50.525Z,6.43
2018-09-26T04:28:18.848Z,6.55
2018-09-26T04:30:47.591Z,6.48
2018-09-26T04:33:16.138Z,6.45
2018-09-26T04:35:44.065Z,6.45
2018-09-26T04:38:12.355Z,6.42
2018-09-26T04:40:40.783Z,6.50
2018-09-26T04:43:09.473Z,6.52
2018-09-26T04:45:38.525Z,6.65
2018-09-26T04:48:06.831Z,6.67
2018-09-26T04:50:34.977Z,6.79
2018-09-26T04:53:03.179Z,6.71
2018-09-26T04:55:31.460Z,6.70
2018-09-26T04:57:59.732Z,6.75
2018-09-26T05:00:27.885Z,6.85
2018-09-26T05:02:56.083Z,6.73
2018-09-26T05:05:24.293Z,6.69
2018-09-26T05:07:52.443Z,6.77
2018-09-26T05:10:20.625Z,6.68
2018-09-26T05:12:48.981Z,6.69
2018-09-26T05:15:17.561Z,6.72
2018-09-26T05:17:46.095Z,6.72
2018-09-26T05:20:14.285Z,6.76
2018-09-26T05:22:42.589Z,6.85
2018-09-26T05:25:11.409Z,6.93
2018-09-26T05:27:40.265Z,6.83
2018-09-26T05:30:09.078Z,6.94
2018-09-26T05:32:37.221Z,6.91
2018-09-26T05:35:06.116Z,6.98
2018-09-26T05:37:34.306Z,6.92
2018-09-26T05:40:02.485Z,7.05
2018-09-26T05:42:30.777Z,7.11
2018-09-26T05:44:59.001Z,7.18
2018-09-26T05:47:27.196Z,7.27
2018-09-26T05:49:55.455Z,7.33
2018-09-26T05:52:25.015Z,7.19
2018-09-26T05:54:54.024Z,7.40
2018-09-26T05:57:22.163Z,7.46
2018-09-26T05:59:50.430Z,7.45
2018-09-26T06:02:18.651Z,7.55
2018-09-26T06:04:47.031Z,7.56
2018-09-26T06:07:15.309Z,7.65
2018-09-26T06:09:43.537Z,7.69
2018-09-26T06:12:11.740Z,7.78
2018-09-26T06:14:39.907Z,7.90
2018-09-26T06:17:08.320Z,7.93
2018-09-26T06:19:37.127Z,8.06
2018-09-26T06:22:05.401Z,8.09
2018-09-26T06:24:33.589Z,8.32
2018-09-26T06:27:01.889Z,8.34
2018-09-26T06:29:30.167Z,8.42
2018-09-26T06:31:58.383Z,8.50
2018-09-26T06:34:28.710Z,8.57
2018-09-26T06:36:57.507Z,8.56
2018-09-26T06:39:26.180Z,8.66
2018-09-26T06:41:54.427Z,8.71
2018-09-26T06:44:23.450Z,8.80
2018-09-26T06:46:51.686Z,8.81
2018-09-26T06:49:19.949Z,8.97
2018-09-26T06:51:48.386Z,9.00
2018-09-26T06:54:16.523Z,8.95
2018-09-26T06:56:44.872Z,8.86
2018-09-26T06:59:13.085Z,8.90
2018-09-26T07:01:41.285Z,9.04
2018-09-26T07:04:09.574Z,8.92
2018-09-26T07:06:37.779Z,8.84
2018-09-26T07:09:07.625Z,8.97
2018-09-26T07:11:35.745Z,8.75
2018-09-26T07:14:03.939Z,8.66
2018-09-26T07:16:32.090Z,8.78
2018-09-26T07:19:00.389Z,8.84
2018-09-26T07:21:28.706Z,8.91
2018-09-26T07:23:57.609Z,8.98
2018-09-26T07:26:25.765Z,9.19
2018-09-26T07:28:53.998Z,9.18
2018-09-26T07:31:22.149Z,9.25
2018-09-26T07:33:50.374Z,9.55
2018-09-26T07:36:19.215Z,9.58
2018-09-26T07:38:47.885Z,9.83
2018-09-26T07:41:16.190Z,10.05
2018-09-26T07:43:45.117Z,10.13
2018-09-26T07:46:13.815Z,10.18
2018-09-26T07:48:42.054Z,10.23
2018-09-26T07:51:12.453Z,10.31
2018-09-26T07:53:41.134Z,10.47
2018-09-26T07:56:09.419Z,10.68
2018-09-26T07:58:37.614Z,10.80
2018-09-26T08:01:05.830Z,10.87
2018-09-26T08:03:34.074Z,10.95
2018-09-26T08:06:02.497Z,11.04
2018-09-26T08:08:31.748Z,11.03
2018-09-26T08:10:59.963Z,10.92
2018-09-26T08:13:28.336Z,10.93
2018-09-26T08:15:56.588Z,10.82
2018-09-26T08:18:24.890Z,10.78
2018-09-26T08:20:53.079Z,10.84
2018-09-26T08:23:21.264Z,10.73
2018-09-26T08:25:49.501Z,10.89
2018-09-26T08:28:17.816Z,10.95
2018-09-26T08:30:45.974Z,11.07
2018-09-26T08:33:14.144Z,11.28
2018-09-26T08:35:42.308Z,11.40
2018-09-26T08:38:10.577Z,11.57
2018-09-26T08:40:38.736Z,11.79
2018-09-26T08:43:06.970Z,11.95
2018-09-26T08:45:35.368Z,12.25
2018-09-26T08:48:04.614Z,12.36
2018-09-26T08:50:33.016Z,12.61
2018-09-26T08:53:01.735Z,12.84
2018-09-26T08:55:29.930Z,13.04
2018-09-26T08:57:58.166Z,13.30
2018-09-26T09:00:31.797Z,13.34
2018-09-26T09:03:00.047Z,13.24
2018-09-26T09:05:29.549Z,13.33
2018-09-26T09:07:58.039Z,13.46
2018-09-26T09:10:26.291Z,13.51
2018-09-26T09:12:54.453Z,13.44
2018-09-26T09:15:23.343Z,13.51
2018-09-26T09:17:51.510Z,13.61
2018-09-26T09:20:19.748Z,13.56
2018-09-26T09:22:48.501Z,13.78
2018-09-26T09:25:16.676Z,13.75
2018-09-26T09:27:45.499Z,13.80
2018-09-26T09:30:14.114Z,13.76
2018-09-26T09:32:43.877Z,13.78
2018-09-26T09:35:12.181Z,13.87
2018-09-26T09:37:40.590Z,13.84
2018-09-26T09:40:08.799Z,14.05
2018-09-26T09:42:37.033Z,14.14
2018-09-26T09:45:05.396Z,14.15
2018-09-26T09:47:33.674Z,14.16
2018-09-26T09:50:02.080Z,14.08
2018-09-26T09:52:30.688Z,14.12
2018-09-26T09:54:59.315Z,14.21
2018-09-26T09:57:27.863Z,14.22
2018-09-26T09:59:56.109Z,14.23
2018-09-26T10:02:24.329Z,14.19
2018-09-26T10:04:52.436Z,14.25
2018-09-26T10:07:20.745Z,14.34
2018-09-26T10:09:48.995Z,14.54
2018-09-26T10:12:17.214Z,14.59
2018-09-26T10:14:45.697Z,14.70
2018-09-26T10:17:14.043Z,14.83
2018-09-26T10:19:42.181Z,14.94
2018-09-26T10:22:10.577Z,14.87
2018-09-26T10:24:38.757Z,14.83
2018-09-26T10:27:06.974Z,15.07
2018-09-26T10:29:35.391Z,15.24
2018-09-26T10:32:05.141Z,15.36
2018-09-26T10:34:33.958Z,15.43
2018-09-26T10:37:05.035Z,15.36
2018-09-26T10:39:33.345Z,15.50
2018-09-26T10:42:01.500Z,15.61
2018-09-26T10:44:29.732Z,15.74
2018-09-26T10:47:02.395Z,15.73
2018-09-26T10:49:31.140Z,15.76
2018-09-26T10:51:59.325Z,15.76
2018-09-26T10:54:27.692Z,15.58
2018-09-26T10:56:56.029Z,15.61
2018-09-26T10:59:24.253Z,15.53
2018-09-26T11:01:52.509Z,15.41
2018-09-26T11:04:20.788Z,15.38
2018-09-26T11:06:49.057Z,15.46
2018-09-26T11:09:17.332Z,15.53
2018-09-26T11:11:45.503Z,15.56
2018-09-26T11:14:13.755Z,15.57
2018-09-26T11:16:42.053Z,15.53
2018-09-26T11:19:11.049Z,15.71
2018-09-26T11:21:39.332Z,15.75
2018-09-26T11:24:07.636Z,15.76
2018-09-26T11:26:35.896Z,15.82
2018-09-26T11:29:04.208Z,15.80
2018-09-26T11:31:32.494Z,15.82
2018-09-26T11:34:00.846Z,15.76
2018-09-26T11:36:29.108Z,15.71
2018-09-26T11:38:57.459Z,15.72
2018-09-26T11:41:25.670Z,15.73
2018-09-26T11:43:54.059Z,15.83
2018-09-26T11:46:22.284Z,15.93
2018-09-26T11:48:50.518Z,16.05
2018-09-26T11:51:19.071Z,16.16
2018-09-26T11:53:47.356Z,16.00
2018-09-26T11:56:15.754Z,16.01
2018-09-26T11:58:44.522Z,16.18
2018-09-26T12:01:12.752Z,16.48
2018-09-26T12:03:41.029Z,16.69
2018-09-26T12:06:09.365Z,16.91
2018-09-26T12:08:37.532Z,16.91
2018-09-26T12:11:05.774Z,16.86
2018-09-26T12:13:33.983Z,17.02
2018-09-26T12:16:02.200Z,16.92
2018-09-26T12:18:30.448Z,16.80
2018-09-26T12:20:58.777Z,16.87
2018-09-26T12:23:26.993Z,16.97
2018-09-26T12:25:55.158Z,17.00
2018-09-26T12:28:23.553Z,16.91
2018-09-26T12:30:51.714Z,17.04
2018-09-26T12:33:20.137Z,17.12
2018-09-26T12:35:48.579Z,17.25
2018-09-26T12:38:16.762Z,17.26
2018-09-26T12:40:45.095Z,16.96
2018-09-26T12:43:13.396Z,17.14
2018-09-26T12:45:41.695Z,17.10
2018-09-26T12:48:10.168Z,17.33
2018-09-26T12:50:38.432Z,17.23
2018-09-26T12:53:07.543Z,17.34
2018-09-26T12:55:36.131Z,17.40
2018-09-26T12:58:06.078Z,17.38
2018-09-26T13:00:34.377Z,17.38
2018-09-26T13:03:02.643Z,17.29
2018-09-26T13:05:32.409Z,17.37
2018-09-26T13:08:01.396Z,17.43
2018-09-26T13:10:29.628Z,17.53
2018-09-26T13:13:00.568Z,17.50
2018-09-26T13:15:29.589Z,17.29
2018-09-26T13:17:57.930Z,17.28
2018-09-26T13:20:26.378Z,17.20
2018-09-26T13:22:55.505Z,17.18
2018-09-26T13:25:23.918Z,17.17
2018-09-26T13:27:53.522Z,17.21
2018-09-26T13:30:22.301Z,17.27
2018-09-26T13:32:50.483Z,17.23
2018-09-26T13:35:18.761Z,17.25
2018-09-26T13:37:47.038Z,17.22
2018-09-26T13:40:15.758Z,17.20
2018-09-26T13:42:44.095Z,17.15
2018-09-26T13:45:12.367Z,17.06
2018-09-26T13:47:40.593Z,17.10
2018-09-26T13:50:08.992Z,17.12
2018-09-26T13:52:37.181Z,17.15
2018-09-26T13:55:05.472Z,17.19
2018-09-26T13:57:33.786Z,17.24
2018-09-26T14:00:01.916Z,17.17
2018-09-26T14:02:31.226Z,17.27
2018-09-26T14:04:59.428Z,17.43
2018-09-26T14:07:28.725Z,17.32
2018-09-26T14:09:57.042Z,17.41
2018-09-26T14:12:25.257Z,17.40
2018-09-26T14:14:53.435Z,17.55
2018-09-26T14:17:21.717Z,17.58
2018-09-26T14:19:49.822Z,17.63
2018-09-26T14:22:18.649Z,17.73
2018-09-26T14:24:46.845Z,17.83
2018-09-26T14:27:15.110Z,17.95
2018-09-26T14:29:43.513Z,17.86
2018-09-26T14:32:12.576Z,17.93
2018-09-26T14:34:40.763Z,17.83
2018-09-26T14:37:09.154Z,17.86
2018-09-26T14:39:37.488Z,17.84
2018-09-26T14:42:05.659Z,17.78
2018-09-26T14:44:33.887Z,17.75
2018-09-26T14:47:02.190Z,17.60
2018-09-26T14:49:30.466Z,17.61
2018-09-26T14:51:59.248Z,17.69
2018-09-26T14:54:27.778Z,17.66
2018-09-26T14:56:56.037Z,17.68
2018-09-26T14:59:24.384Z,17.66
2018-09-26T15:01:52.600Z,17.64
2018-09-26T15:04:21.122Z,17.62
2018-09-26T15:06:49.394Z,17.63
2018-09-26T15:09:17.689Z,17.46
2018-09-26T15:11:46.069Z,17.48
2018-09-26T15:14:14.519Z,17.49
2018-09-26T15:16:42.896Z,17.42
2018-09-26T15:19:11.583Z,17.34
2018-09-26T15:21:39.842Z,17.36
2018-09-26T15:24:08.128Z,17.37
2018-09-26T15:26:36.434Z,17.31
2018-09-26T15:29:07.715Z,17.34
2018-09-26T15:31:36.666Z,17.27
2018-09-26T15:34:05.155Z,17.23
2018-09-26T15:36:33.425Z,17.22
2018-09-26T15:39:01.692Z,17.17
2018-09-26T15:41:29.890Z,17.12
2018-09-26T15:43:58.803Z,17.01
2018-09-26T15:46:27.233Z,16.95
2018-09-26T15:48:55.457Z,16.98
2018-09-26T15:51:23.684Z,16.84
2018-09-26T15:53:51.841Z,16.81
2018-09-26T15:56:20.402Z,16.80
2018-09-26T15:58:48.765Z,16.73
2018-09-26T16:01:16.973Z,16.66
2018-09-26T16:03:45.458Z,16.70
2018-09-26T16:06:13.907Z,16.62
2018-09-26T16:08:42.232Z,16.60
2018-09-26T16:11:10.592Z,16.53
2018-09-26T16:13:39.250Z,16.52
2018-09-26T16:16:07.484Z,16.62
2018-09-26T16:18:36.414Z,16.58
2018-09-26T16:21:04.624Z,16.51
2018-09-26T16:23:32.908Z,16.50
2018-09-26T16:26:01.478Z,16.45
2018-09-26T16:28:29.881Z,16.36
2018-09-26T16:30:58.242Z,16.33
2018-09-26T16:33:26.519Z,16.16
2018-09-26T16:35:55.514Z,16.13
2018-09-26T16:38:23.964Z,16.11
2018-09-26T16:40:52.978Z,16.06
2018-09-26T16:43:35.704Z,16.09
2018-09-26T16:46:04.124Z,16.01
2018-09-26T16:48:33.305Z,15.80
2018-09-26T16:51:01.552Z,15.85
2018-09-26T16:53:29.870Z,15.72
2018-09-26T16:55:59.641Z,15.58
2018-09-26T16:58:28.803Z,15.40
2018-09-26T17:00:57.109Z,15.39
2018-09-26T17:03:25.457Z,15.41
2018-09-26T17:05:55.375Z,15.31
2018-09-26T17:08:24.230Z,15.37
2018-09-26T17:11:00.516Z,15.27
2018-09-26T17:13:30.034Z,15.18
2018-09-26T17:15:58.312Z,15.17
2018-09-26T17:18:26.823Z,15.22
2018-09-26T17:20:55.002Z,15.38
2018-09-26T17:23:23.349Z,15.42
2018-09-26T17:25:51.858Z,15.51
2018-09-26T17:28:22.471Z,15.51
2018-09-26T17:30:51.048Z,15.71
2018-09-26T17:33:20.736Z,15.68
2018-09-26T17:35:59.468Z,15.79
2018-09-26T17:38:28.614Z,15.82
2018-09-26T17:40:57.660Z,15.77
2018-09-26T17:43:37.202Z,15.83
2018-09-26T17:46:10.387Z,15.88
2018-09-26T17:51:39.454Z,15.84
2018-09-26T17:54:08.859Z,15.86
2018-09-26T17:56:37.082Z,15.87
2018-09-26T17:59:05.606Z,15.90
2018-09-26T18:01:33.962Z,15.82
2018-09-26T18:04:02.509Z,15.91
2018-09-26T18:06:31.315Z,15.83
2018-09-26T18:08:59.560Z,15.89
2018-09-26T18:11:28.174Z,15.93
2018-09-26T18:13:56.573Z,15.93
2018-09-26T18:16:25.012Z,15.86
2018-09-26T18:18:53.720Z,15.88
2018-09-26T18:21:23.410Z,15.90
2018-09-26T18:23:52.449Z,15.82
2018-09-26T18:26:21.407Z,15.88
2018-09-26T18:28:51.200Z,15.86
2018-09-26T18:31:19.561Z,15.87
2018-09-26T18:33:47.943Z,15.88
2018-09-26T18:36:19.554Z,15.84
2018-09-26T18:38:48.154Z,15.88
2018-09-26T18:41:16.649Z,15.85
2018-09-26T18:43:45.663Z,15.87
2018-09-26T18:46:14.957Z,15.88
2018-09-26T18:48:43.947Z,15.91
2018-09-26T18:51:12.418Z,15.89
2018-09-26T18:53:40.745Z,15.87
2018-09-26T18:56:09.089Z,15.86
2018-09-26T18:58:38.273Z,15.72
2018-09-26T19:01:07.275Z,15.74
2018-09-26T19:03:35.803Z,15.74
2018-09-26T19:06:08.573Z,15.81
2018-09-26T19:08:37.319Z,15.75
2018-09-26T19:11:05.669Z,15.88
2018-09-26T19:13:33.870Z,15.81
2018-09-26T19:16:02.080Z,15.85
2018-09-26T19:18:30.387Z,15.89
2018-09-26T19:20:58.691Z,15.80
2018-09-26T19:23:26.897Z,15.80
2018-09-26T19:26:01.803Z,15.84
2018-09-26T19:28:30.019Z,15.81
2018-09-26T19:30:58.377Z,15.72
2018-09-26T19:33:26.674Z,15.74
2018-09-26T19:35:56.004Z,15.84
2018-09-26T19:38:24.412Z,15.81
2018-09-26T19:40:52.869Z,15.76
2018-09-26T19:43:22.644Z,15.69
2018-09-26T19:45:51.679Z,15.55
2018-09-26T19:48:20.125Z,15.58
2018-09-26T19:50:48.893Z,15.56
2018-09-26T19:53:17.151Z,15.61
2018-09-26T19:55:45.434Z,15.61
2018-09-26T19:58:13.656Z,15.54
2018-09-26T20:00:42.057Z,15.60
2018-09-26T20:03:10.528Z,15.56
2018-09-26T20:05:38.952Z,15.54
2018-09-26T20:08:07.509Z,15.41
2018-09-26T20:10:35.967Z,15.35
2018-09-26T20:13:04.432Z,15.48
2018-09-26T20:15:32.730Z,15.54
2018-09-26T20:18:01.728Z,15.51
2018-09-26T20:20:30.073Z,15.56
2018-09-26T20:22:58.466Z,15.56
2018-09-26T20:25:28.113Z,15.61
2018-09-26T20:27:57.764Z,15.53
2018-09-26T20:30:27.224Z,15.52
2018-09-26T20:32:55.640Z,15.54
2018-09-26T20:35:24.965Z,15.54
2018-09-26T20:37:53.772Z,15.58
2018-09-26T20:40:22.028Z,15.54
2018-09-26T20:42:50.260Z,15.60
2018-09-26T20:45:18.566Z,15.61
2018-09-26T20:47:46.799Z,15.60
2018-09-26T20:50:15.298Z,15.57
2018-09-26T20:52:43.534Z,15.61
2018-09-26T20:55:13.121Z,15.62
2018-09-26T20:57:41.338Z,15.66
2018-09-26T21:00:11.191Z,15.59
2018-09-26T21:02:39.545Z,15.57
2018-09-26T21:05:07.937Z,15.57
2018-09-26T21:07:36.155Z,15.56
2018-09-26T21:10:04.393Z,15.48
2018-09-26T21:12:32.608Z,15.55
2018-09-26T21:15:01.560Z,15.50
2018-09-26T21:17:29.837Z,15.50
2018-09-26T21:19:58.055Z,15.55
2018-09-26T21:22:26.328Z,15.47
2018-09-26T21:24:54.520Z,15.47
2018-09-26T21:27:22.660Z,15.48
2018-09-26T21:29:51.442Z,15.46
2018-09-26T21:32:19.719Z,15.50
2018-09-26T21:34:48.015Z,15.51
2018-09-26T21:37:16.653Z,15.49
2018-09-26T21:39:44.915Z,15.44
2018-09-26T21:42:13.166Z,15.41
2018-09-26T21:44:41.707Z,15.36
2018-09-26T21:47:10.407Z,15.40
2018-09-26T21:49:38.614Z,15.46
2018-09-26T21:52:07.228Z,15.42
2018-09-26T21:54:35.561Z,15.53
2018-09-26T21:57:03.864Z,15.49
2018-09-26T21:59:32.129Z,15.52
2018-09-26T22:02:00.323Z,15.49
2018-09-26T22:04:28.558Z,15.53
2018-09-26T22:06:56.840Z,15.53
2018-09-26T22:09:25.110Z,15.54
2018-09-26T22:12:04.912Z,15.50
2018-09-26T22:14:34.403Z,15.57
2018-09-26T22:17:02.682Z,15.55
2018-09-26T22:19:30.861Z,15.54
2018-09-26T22:21:59.133Z,15.55
2018-09-26T22:24:27.299Z,15.54
2018-09-26T22:26:56.030Z,15.60
2018-09-26T22:29:24.221Z,15.63
2018-09-26T22:31:52.414Z,15.59
2018-09-26T22:34:20.604Z,15.61
2018-09-26T22:36:48.778Z,15.61
2018-09-26T22:39:16.919Z,15.65
2018-09-26T22:41:45.241Z,15.66
2018-09-26T22:44:13.417Z,15.67
2018-09-26T22:46:42.831Z,15.69
2018-09-26T22:49:10.948Z,15.63
2018-09-26T22:51:39.121Z,15.66
2018-09-26T22:54:07.304Z,15.58
2018-09-26T22:56:35.477Z,15.66
2018-09-26T22:59:03.695Z,15.69
2018-09-26T23:01:32.002Z,15.65
2018-09-26T23:04:00.222Z,15.75
2018-09-26T23:06:28.392Z,15.68
2018-09-26T23:08:56.687Z,15.69
2018-09-26T23:11:29.787Z,15.63
2018-09-26T23:13:57.992Z,15.61
2018-09-26T23:16:26.159Z,15.53
2018-09-26T23:18:54.329Z,15.50
2018-09-26T23:21:22.980Z,15.55
2018-09-26T23:23:51.138Z,15.52
2018-09-26T23:26:19.459Z,15.52
2018-09-26T23:28:47.623Z,15.54
2018-09-26T23:31:15.799Z,15.47
2018-09-26T23:33:48.001Z,15.53
2018-09-26T23:36:16.231Z,15.47
2018-09-26T23:38:44.499Z,15.53
2018-09-26T23:41:12.692Z,15.51
2018-09-26T23:43:40.924Z,15.51
2018-09-26T23:46:09.151Z,15.48
2018-09-26T23:48:37.570Z,15.49
2018-09-26T23:51:05.816Z,15.50
2018-09-26T23:53:34.046Z,15.47
2018-09-26T23:56:02.267Z,15.47
2018-09-26T23:58:30.955Z,15.45
